Time;durP1;ratioP1;P1;durP2;ratioP2;P2;SDS_P1;SDS_P2;PMS_P1;PMS_P2;Temp;Humidity;BMP_temperature;BMP_pressure;BME280_temperature;BME280_humidity;BME280_pressure;Samples;Min_cycle;Max_cycle;Signal;HPM_P1;HPM_P2
2021/04/17 00:01:06;;;;;;;8.65;4.70;;;;;;;-143.98;100.00;68091.63;5064444;28;20091;-80
2021/04/17 00:03:33;;;;;;;11.38;5.47;;;;;;;-143.98;100.00;68091.63;5084969;28;20059;-79
2021/04/17 00:05:59;;;;;;;14.80;4.65;;;;;;;-143.98;100.00;68091.63;5064854;28;20230;-80
2021/04/17 00:08:25;;;;;;;16.48;5.47;;;;;;;-143.98;100.00;68091.63;5060363;28;20141;-80
2021/04/17 00:10:51;;;;;;;12.75;5.55;;;;;;;-143.98;100.00;68091.63;5060707;28;20056;-80
2021/04/17 00:13:21;;;;;;;13.43;5.68;;;;;;;-143.98;100.00;68091.63;5078134;28;20052;-80
2021/04/17 00:15:49;;;;;;;10.68;5.90;;;;;;;-143.98;100.00;68091.63;5046913;28;20049;-80
2021/04/17 00:18:16;;;;;;;11.40;5.97;;;;;;;-143.98;100.00;68091.63;5050724;28;20071;-80
2021/04/17 00:20:42;;;;;;;13.13;5.75;;;;;;;-143.98;100.00;68091.63;5055942;28;20060;-80
2021/04/17 00:23:08;;;;;;;16.20;5.57;;;;;;;-143.98;100.00;68091.63;5061665;28;20066;-80
2021/04/17 00:25:34;;;;;;;13.45;5.90;;;;;;;-143.98;100.00;68091.63;5039587;28;20057;-80
2021/04/17 00:28:04;;;;;;;15.95;5.15;;;;;;;-143.98;100.00;68091.63;5056398;28;20064;-80
2021/04/17 00:30:30;;;;;;;11.45;5.78;;;;;;;-143.98;100.00;68091.63;5055732;28;20057;-79
2021/04/17 00:32:56;;;;;;;12.40;6.15;;;;;;;-143.98;100.00;68091.63;5055903;28;20057;-80
2021/04/17 00:35:23;;;;;;;10.63;5.45;;;;;;;-143.98;100.00;68091.63;5061156;28;20092;-80
2021/04/17 00:37:49;;;;;;;12.75;5.72;;;;;;;-143.98;100.00;68091.63;5044597;28;20111;-80
2021/04/17 00:40:16;;;;;;;25.30;7.47;;;;;;;-143.98;100.00;68091.63;5040204;28;20064;-80
2021/04/17 00:42:42;;;;;;;12.68;7.15;;;;;;;-143.98;100.00;68091.63;5037914;28;20119;-80
2021/04/17 00:45:10;;;;;;;20.30;7.38;;;;;;;-143.98;100.00;68091.63;5039245;28;20064;-81
2021/04/17 00:47:43;;;;;;;19.65;6.75;;;;;;;-143.98;100.00;68091.63;5023269;28;20206;-81
2021/04/17 00:50:10;;;;;;;23.05;7.55;;;;;;;-143.98;100.00;68091.63;5040254;28;20142;-81
2021/04/17 00:52:36;;;;;;;13.10;7.35;;;;;;;-143.98;100.00;68091.63;5022895;28;20057;-81
2021/04/17 00:55:06;;;;;;;16.88;6.80;;;;;;;-143.98;100.00;68091.63;5040104;28;20068;-81
2021/04/17 00:57:33;;;;;;;22.10;7.90;;;;;;;-143.98;100.00;68091.63;5039440;28;20065;-81
2021/04/17 00:59:59;;;;;;;12.85;7.13;;;;;;;-143.98;100.00;68091.63;5056206;28;20061;-80
2021/04/17 01:02:29;;;;;;;19.90;7.57;;;;;;;-143.98;100.00;68091.63;5022430;28;20057;-81
2021/04/17 01:04:59;;;;;;;16.80;7.35;;;;;;;-143.98;100.00;68091.63;5040205;28;20071;-81
2021/04/17 01:07:47;;;;;;;14.20;6.90;;;;;;;-143.98;100.00;68091.63;5039553;28;20056;-81
2021/04/17 01:10:21;;;;;;;19.70;7.60;;;;;;;-143.98;100.00;68091.63;5023551;28;20053;-81
2021/04/17 01:12:54;;;;;;;15.52;7.45;;;;;;;-143.98;100.00;68091.63;5038601;28;20352;-81
2021/04/17 01:15:21;;;;;;;17.30;7.57;;;;;;;-143.98;100.00;68091.63;5021390;28;20256;-81
2021/04/17 01:17:52;;;;;;;16.48;7.65;;;;;;;-143.98;100.00;68091.63;5023721;28;20664;-81
2021/04/17 01:20:39;;;;;;;19.58;8.15;;;;;;;-143.98;100.00;68091.63;5023418;28;20052;-81
2021/04/17 01:23:24;;;;;;;18.13;7.10;;;;;;;-143.98;100.00;68091.63;5040651;28;20421;-81
2021/04/17 01:25:54;;;;;;;22.85;7.75;;;;;;;-143.98;100.00;68091.63;5042017;28;20053;-81
2021/04/17 01:28:22;;;;;;;19.65;7.93;;;;;;;-143.98;100.00;68091.63;5024208;28;20056;-81
2021/04/17 01:30:51;;;;;;;14.40;7.35;;;;;;;-143.98;100.00;68091.63;5051295;28;20041;-81
2021/04/17 01:33:18;;;;;;;14.80;7.45;;;;;;;-143.98;100.00;68091.63;5052438;28;20264;-81
2021/04/17 01:35:46;;;;;;;20.40;6.85;;;;;;;-143.98;100.00;68091.63;5023500;28;20147;-81
2021/04/17 01:38:27;;;;;;;15.18;6.10;;;;;;;-143.98;100.00;68091.63;5039060;28;20053;-81
2021/04/17 01:41:02;;;;;;;15.57;7.78;;;;;;;-143.98;100.00;68091.63;5042027;28;20057;-81
2021/04/17 01:43:29;;;;;;;18.85;7.18;;;;;;;-143.98;100.00;68091.63;5040764;28;20318;-81
2021/04/17 01:45:58;;;;;;;20.08;7.32;;;;;;;-143.98;100.00;68091.63;5023378;28;20049;-81
2021/04/17 01:48:28;;;;;;;15.30;6.57;;;;;;;-143.98;100.00;68091.63;5039531;28;20053;-81
2021/04/17 01:50:58;;;;;;;18.10;6.57;;;;;;;-143.98;100.00;68091.63;5039247;28;20088;-81
2021/04/17 01:53:31;;;;;;;18.33;7.25;;;;;;;-143.98;100.00;68091.63;5037598;28;20052;-81
2021/04/17 01:55:58;;;;;;;12.07;6.18;;;;;;;-143.98;100.00;68091.63;5042343;28;20061;-81
2021/04/17 01:58:27;;;;;;;16.73;6.63;;;;;;;-143.98;100.00;68091.63;5055047;28;20185;-81
2021/04/17 02:00:55;;;;;;;12.80;6.05;;;;;;;-143.98;100.00;68091.63;5054737;28;20048;-82
2021/04/17 02:03:22;;;;;;;16.67;6.63;;;;;;;-143.98;100.00;68091.63;5036947;28;20049;-81
2021/04/17 02:05:51;;;;;;;20.55;6.03;;;;;;;-143.98;100.00;68091.63;5032696;28;20064;-80
2021/04/17 02:08:17;;;;;;;21.30;6.78;;;;;;;-143.98;100.00;68091.63;5042062;28;20430;-80
2021/04/17 02:10:45;;;;;;;15.70;6.38;;;;;;;-143.98;100.00;68091.63;5039402;28;20057;-80
2021/04/17 02:13:12;;;;;;;16.02;6.50;;;;;;;-143.98;100.00;68091.63;5021683;28;20067;-80
2021/04/17 02:15:40;;;;;;;14.32;6.43;;;;;;;-143.98;100.00;68091.63;5024173;28;20140;-81
2021/04/17 02:18:27;;;;;;;17.58;6.60;;;;;;;-143.98;100.00;68091.63;5021073;28;20057;-81
2021/04/17 02:21:05;;;;;;;14.05;5.95;;;;;;;-143.98;100.00;68091.63;5038552;28;20278;-80
2021/04/17 02:23:33;;;;;;;12.07;5.47;;;;;;;-143.98;100.00;68091.63;5070975;28;20049;-80
2021/04/17 02:25:59;;;;;;;18.23;5.93;;;;;;;-143.98;100.00;68091.63;5054378;28;20044;-79
2021/04/17 02:28:27;;;;;;;13.00;5.72;;;;;;;-143.98;100.00;68091.63;5042221;28;20061;-80
2021/04/17 02:30:53;;;;;;;14.07;5.40;;;;;;;-143.98;100.00;68091.63;5059356;28;20083;-80
2021/04/17 02:33:20;;;;;;;20.50;7.00;;;;;;;-143.98;100.00;68091.63;5027875;28;20074;-81
2021/04/17 02:35:47;;;;;;;17.67;6.47;;;;;;;-143.98;100.00;68091.63;5073129;28;20041;-81
2021/04/17 02:38:14;;;;;;;13.90;7.07;;;;;;;-143.98;100.00;68091.63;5065421;28;20056;-81
2021/04/17 02:40:40;;;;;;;14.02;6.45;;;;;;;-143.98;100.00;68091.63;5039651;28;20056;-80
2021/04/17 02:43:06;;;;;;;22.52;7.03;;;;;;;-143.98;100.00;68091.63;5065411;28;20126;-80
2021/04/17 02:45:32;;;;;;;16.95;6.28;;;;;;;-143.98;100.00;68091.63;5047707;28;20056;-80
2021/04/17 02:47:59;;;;;;;13.60;6.65;;;;;;;-143.98;100.00;68091.63;5062224;28;20057;-81
2021/04/17 02:50:26;;;;;;;18.15;6.32;;;;;;;-143.98;100.00;68091.63;5041349;28;20257;-80
2021/04/17 02:52:52;;;;;;;18.75;7.38;;;;;;;-143.98;100.00;68091.63;5040665;28;20060;-80
2021/04/17 02:55:20;;;;;;;12.30;6.82;;;;;;;-143.98;100.00;68091.63;5040175;28;20096;-80
2021/04/17 02:57:47;;;;;;;12.73;6.05;;;;;;;-143.98;100.00;68091.63;5022873;28;20325;-80
2021/04/17 03:00:17;;;;;;;16.30;5.80;;;;;;;-143.98;100.00;68091.63;5022748;28;20075;-80
2021/04/17 03:02:43;;;;;;;16.85;6.80;;;;;;;-143.98;100.00;68091.63;5036419;28;20064;-81
2021/04/17 03:05:11;;;;;;;18.27;7.10;;;;;;;-143.98;100.00;68091.63;5036827;28;20397;-81
2021/04/17 03:07:37;;;;;;;15.98;6.63;;;;;;;-143.98;100.00;68091.63;5039138;28;20378;-81
2021/04/17 03:10:05;;;;;;;22.27;7.72;;;;;;;-143.98;100.00;68091.63;5039730;28;20156;-80
2021/04/17 03:12:32;;;;;;;16.85;7.55;;;;;;;-143.98;100.00;68091.63;5021325;28;20053;-81
2021/04/17 03:15:02;;;;;;;17.45;7.40;;;;;;;-143.98;100.00;68091.63;5040750;28;20053;-81
2021/04/17 03:17:31;;;;;;;21.58;8.45;;;;;;;-143.98;100.00;68091.63;5040325;28;20057;-81
2021/04/17 03:19:57;;;;;;;22.85;7.22;;;;;;;-143.98;100.00;68091.63;5039134;28;20060;-80
2021/04/17 03:22:24;;;;;;;12.73;6.50;;;;;;;-143.98;100.00;68091.63;5065842;28;20071;-81
2021/04/17 03:24:50;;;;;;;17.90;6.88;;;;;;;-143.98;100.00;68091.63;5054407;28;20068;-81
2021/04/17 03:27:16;;;;;;;18.05;7.05;;;;;;;-143.98;100.00;68091.63;5053816;28;20061;-81
2021/04/17 03:29:46;;;;;;;23.77;6.70;;;;;;;-143.98;100.00;68091.63;5037037;28;20516;-81
2021/04/17 03:32:12;;;;;;;11.93;6.30;;;;;;;-143.98;100.00;68091.63;5038989;28;20052;-81
2021/04/17 03:34:38;;;;;;;13.75;5.70;;;;;;;-143.98;100.00;68091.63;5054769;28;20097;-80
2021/04/17 03:37:04;;;;;;;18.92;7.57;;;;;;;-143.98;100.00;68091.63;5039154;28;20151;-81
2021/04/17 03:39:31;;;;;;;19.83;7.03;;;;;;;-143.98;100.00;68091.63;5054781;28;20089;-81
2021/04/17 03:42:00;;;;;;;16.65;7.22;;;;;;;-143.98;100.00;68091.63;5036971;28;20061;-81
2021/04/17 03:44:29;;;;;;;20.77;7.88;;;;;;;-143.98;100.00;68091.63;5055992;28;20061;-81
2021/04/17 03:46:55;;;;;;;19.52;7.75;;;;;;;-143.98;100.00;68091.63;5060618;28;20080;-80
2021/04/17 03:49:22;;;;;;;13.85;7.20;;;;;;;-143.98;100.00;68091.63;5049718;28;20060;-81
2021/04/17 03:51:48;;;;;;;21.85;7.50;;;;;;;-143.98;100.00;68091.63;5064188;28;20463;-80
2021/04/17 03:54:14;;;;;;;20.00;8.50;;;;;;;-143.98;100.00;68091.63;5059995;28;20177;-80
2021/04/17 03:56:44;;;;;;;19.73;7.45;;;;;;;-143.98;100.00;68091.63;5018905;28;20072;-81
2021/04/17 03:59:10;;;;;;;18.58;7.95;;;;;;;-143.98;100.00;68091.63;5018733;28;20059;-81
2021/04/17 04:01:37;;;;;;;25.40;8.10;;;;;;;-143.98;100.00;68091.63;5033349;28;20148;-80
2021/04/17 04:04:03;;;;;;;22.88;7.57;;;;;;;-143.98;100.00;68091.63;5017490;28;20072;-81
2021/04/17 04:06:33;;;;;;;16.88;7.82;;;;;;;-143.98;100.00;68091.63;5033599;28;20052;-81
2021/04/17 04:08:59;;;;;;;13.25;6.78;;;;;;;-143.98;100.00;68091.63;5015512;28;20120;-81
2021/04/17 04:11:25;;;;;;;20.52;9.32;;;;;;;-143.98;100.00;68091.63;5031916;28;20115;-82
2021/04/17 04:13:52;;;;;;;18.35;8.48;;;;;;;-143.98;100.00;68091.63;5031647;28;20488;-81
2021/04/17 04:16:24;;;;;;;20.60;8.27;;;;;;;-143.98;100.00;68091.63;5018676;28;20425;-82
2021/04/17 04:18:50;;;;;;;19.30;8.73;;;;;;;-143.98;100.00;68091.63;5018471;28;20422;-81
2021/04/17 04:21:16;;;;;;;20.10;9.35;;;;;;;-143.98;100.00;68091.63;5038101;28;20309;-82
2021/04/17 04:23:50;;;;;;;21.35;10.05;;;;;;;-143.98;100.00;68091.63;5056278;28;20057;-82
2021/04/17 04:26:18;;;;;;;26.92;11.10;;;;;;;-143.98;100.00;68091.63;5056176;28;20333;-82
2021/04/17 04:28:45;;;;;;;24.40;10.68;;;;;;;-143.98;100.00;68091.63;5033118;28;20065;-81
2021/04/17 04:31:11;;;;;;;31.77;12.88;;;;;;;-143.98;100.00;68091.63;5050798;28;20116;-82
2021/04/17 04:33:37;;;;;;;28.95;12.40;;;;;;;-143.98;100.00;68091.63;5019405;28;20060;-81
2021/04/17 04:36:08;;;;;;;38.50;13.13;;;;;;;-143.98;100.00;68091.63;5051704;28;20095;-82
2021/04/17 04:38:36;;;;;;;23.23;12.77;;;;;;;-143.98;100.00;68091.63;5036614;28;20053;-81
2021/04/17 04:41:06;;;;;;;31.15;12.80;;;;;;;-143.98;100.00;68091.63;5036290;28;20452;-81
2021/04/17 04:43:32;;;;;;;25.65;12.20;;;;;;;-143.98;100.00;68091.63;5053941;28;20150;-82
2021/04/17 04:46:01;;;;;;;28.55;11.68;;;;;;;-143.98;100.00;68091.63;5039354;28;20087;-81
2021/04/17 04:48:28;;;;;;;23.92;12.00;;;;;;;-143.98;100.00;68091.63;5050365;28;20067;-81
2021/04/17 04:50:54;;;;;;;32.15;12.57;;;;;;;-143.98;100.00;68091.63;5036962;28;20254;-81
2021/04/17 04:53:21;;;;;;;24.10;12.73;;;;;;;-143.98;100.00;68091.63;5032881;28;20064;-82
2021/04/17 04:55:47;;;;;;;28.95;12.15;;;;;;;-143.98;100.00;68091.63;5041203;28;20071;-82
2021/04/17 04:58:13;;;;;;;19.73;11.40;;;;;;;-143.98;100.00;68091.63;5025030;28;20453;-81
2021/04/17 05:00:43;;;;;;;24.77;12.75;;;;;;;-143.98;100.00;68091.63;5026254;28;20064;-79
2021/04/17 05:03:09;;;;;;;25.55;11.18;;;;;;;-143.98;100.00;68091.63;5041172;28;20271;-80
2021/04/17 05:05:35;;;;;;;21.15;12.15;;;;;;;-143.98;100.00;68091.63;5040506;28;20057;-80
2021/04/17 05:08:02;;;;;;;28.77;11.05;;;;;;;-143.98;100.00;68091.63;5044445;28;20068;-80
2021/04/17 05:10:31;;;;;;;20.88;10.75;;;;;;;-143.98;100.00;68091.63;5050350;28;20067;-80
2021/04/17 05:12:57;;;;;;;23.38;10.82;;;;;;;-143.98;100.00;68091.63;5050085;28;20127;-80
2021/04/17 05:15:27;;;;;;;20.25;10.20;;;;;;;-143.98;100.00;68091.63;5042825;28;20108;-81
2021/04/17 05:17:53;;;;;;;19.98;10.57;;;;;;;-143.98;100.00;68091.63;5023269;28;20072;-81
2021/04/17 05:20:24;;;;;;;21.00;11.20;;;;;;;-143.98;100.00;68091.63;5027877;28;20118;-80
2021/04/17 05:22:52;;;;;;;29.77;11.27;;;;;;;-143.98;100.00;68091.63;5055050;28;20072;-80
2021/04/17 05:25:19;;;;;;;21.23;10.07;;;;;;;-143.98;100.00;68091.63;5057452;28;20057;-81
2021/04/17 05:27:45;;;;;;;23.35;12.45;;;;;;;-143.98;100.00;68091.63;5056506;28;20085;-81
2021/04/17 05:30:12;;;;;;;25.35;11.52;;;;;;;-143.98;100.00;68091.63;5055165;28;20156;-81
2021/04/17 05:32:40;;;;;;;22.90;10.18;;;;;;;-143.98;100.00;68091.63;5055683;28;20053;-81
2021/04/17 05:35:08;;;;;;;21.00;9.88;;;;;;;-143.98;100.00;68091.63;5053323;28;20437;-81
2021/04/17 05:37:40;;;;;;;21.85;10.55;;;;;;;-143.98;100.00;68091.63;5054585;28;20119;-82
2021/04/17 05:40:07;;;;;;;19.85;9.77;;;;;;;-143.98;100.00;68091.63;5053514;28;20053;-81
2021/04/17 05:42:33;;;;;;;21.85;9.60;;;;;;;-143.98;100.00;68091.63;5052445;28;20263;-82
2021/04/17 05:45:00;;;;;;;20.80;9.00;;;;;;;-143.98;100.00;68091.63;5052917;28;20079;-80
2021/04/17 05:47:29;;;;;;;16.77;8.32;;;;;;;-143.98;100.00;68091.63;5040816;28;20060;-80
2021/04/17 05:49:55;;;;;;;13.30;8.57;;;;;;;-143.98;100.00;68091.63;5054624;28;20103;-80
2021/04/17 05:52:21;;;;;;;15.57;8.48;;;;;;;-143.98;100.00;68091.63;5064326;28;20045;-80
2021/04/17 05:54:54;;;;;;;14.50;8.30;;;;;;;-143.98;100.00;68091.63;5064531;28;20113;-80
2021/04/17 05:57:21;;;;;;;19.42;8.10;;;;;;;-143.98;100.00;68091.63;5059499;28;20079;-80
2021/04/17 05:59:52;;;;;;;18.52;9.00;;;;;;;-143.98;100.00;68091.63;5040977;28;20061;-82
2021/04/17 06:02:19;;;;;;;17.08;8.13;;;;;;;-143.98;100.00;68091.63;5057193;28;20197;-81
2021/04/17 06:04:49;;;;;;;16.95;7.70;;;;;;;-143.98;100.00;68091.63;5048934;28;20067;-81
2021/04/17 06:07:15;;;;;;;13.90;7.40;;;;;;;-143.98;100.00;68091.63;5049069;28;20069;-81
2021/04/17 06:09:41;;;;;;;14.07;7.57;;;;;;;-143.98;100.00;68091.63;5056624;28;20057;-81
2021/04/17 06:12:08;;;;;;;19.17;8.02;;;;;;;-143.98;100.00;68091.63;5055901;28;20049;-81
2021/04/17 06:14:37;;;;;;;12.27;6.90;;;;;;;-143.98;100.00;68091.63;5056974;28;20384;-81
2021/04/17 06:17:03;;;;;;;14.05;6.85;;;;;;;-143.98;100.00;68091.63;5055667;28;20451;-81
2021/04/17 06:19:30;;;;;;;12.38;7.63;;;;;;;-143.98;100.00;68091.63;5053796;28;20075;-81
2021/04/17 06:21:57;;;;;;;13.00;7.32;;;;;;;-143.98;100.00;68091.63;5049152;28;20069;-81
2021/04/17 06:24:23;;;;;;;13.50;7.47;;;;;;;-143.98;100.00;68091.63;5046696;28;20208;-81
2021/04/17 06:26:50;;;;;;;10.25;5.65;;;;;;;-143.98;100.00;68091.63;5048214;28;20390;-81
2021/04/17 06:29:16;;;;;;;11.18;6.18;;;;;;;-143.98;100.00;68091.63;5050203;28;20053;-81
2021/04/17 06:31:49;;;;;;;11.93;6.72;;;;;;;-143.98;100.00;68091.63;5048390;28;20057;-81
2021/04/17 06:34:16;;;;;;;10.45;6.35;;;;;;;-143.98;100.00;68091.63;5049952;28;20069;-80
2021/04/17 06:36:46;;;;;;;13.77;6.05;;;;;;;-143.98;100.00;68091.63;5049127;28;20065;-80
2021/04/17 06:39:12;;;;;;;10.13;5.38;;;;;;;-143.98;100.00;68091.63;5050037;28;20444;-80
2021/04/17 06:41:41;;;;;;;11.82;5.95;;;;;;;-143.98;100.00;68091.63;5047225;28;20049;-81
2021/04/17 06:44:07;;;;;;;18.55;6.43;;;;;;;-143.98;100.00;68091.63;5053509;28;20065;-80
2021/04/17 06:46:39;;;;;;;11.10;5.35;;;;;;;-143.98;100.00;68091.63;5034226;28;20064;-80
2021/04/17 06:49:08;;;;;;;10.50;5.18;;;;;;;-143.98;100.00;68091.63;5030564;28;20065;-80
2021/04/17 06:51:47;;;;;;;10.27;5.60;;;;;;;-143.98;100.00;68091.63;5030887;28;20084;-80
2021/04/17 06:54:19;;;;;;;11.23;5.90;;;;;;;-143.98;100.00;68091.63;5032727;28;20061;-79
2021/04/17 06:57:06;;;;;;;10.05;4.95;;;;;;;-143.98;100.00;68091.63;5030658;28;20053;-80
2021/04/17 06:59:32;;;;;;;;;;;;;;;-143.98;100.00;68091.63;5041180;28;20078;-80
2021/04/17 07:02:01;;;;;;;11.55;4.97;;;;;;;-143.98;100.00;68091.63;5053244;28;19924;-81
2021/04/17 07:04:27;;;;;;;14.10;6.03;;;;;;;-143.98;100.00;68091.63;5035910;28;20060;-81
2021/04/17 07:06:54;;;;;;;7.82;5.05;;;;;;;-143.98;100.00;68091.63;5035508;28;20208;-81
2021/04/17 07:09:29;;;;;;;16.38;4.53;;;;;;;-143.98;100.00;68091.63;5038972;28;20051;-80
2021/04/17 07:11:56;;;;;;;12.90;5.28;;;;;;;-143.98;100.00;68091.63;5064497;28;20052;-81
2021/04/17 07:14:22;;;;;;;15.18;4.63;;;;;;;-143.98;100.00;68091.63;5037208;28;20186;-80
2021/04/17 07:17:00;;;;;;;8.10;4.22;;;;;;;-143.98;100.00;68091.63;5033172;28;20067;-81
2021/04/17 07:19:52;;;;;;;11.77;4.70;;;;;;;-143.98;100.00;68091.63;5049572;28;20053;-80
2021/04/17 07:22:24;;;;;;;10.43;4.40;;;;;;;-143.98;100.00;68091.63;5054499;28;20095;-81
2021/04/17 07:25:12;;;;;;;11.75;4.40;;;;;;;-143.98;100.00;68091.63;5059493;28;20040;-81
2021/04/17 07:27:42;;;;;;;12.93;3.80;;;;;;;-143.98;100.00;68091.63;5068214;28;20052;-82
2021/04/17 07:30:15;;;;;;;9.68;3.90;;;;;;;-143.98;100.00;68091.63;5066218;28;20052;-82
2021/04/17 07:32:45;;;;;;;8.02;4.50;;;;;;;-143.98;100.00;68091.63;5088507;28;20167;-82
2021/04/17 07:35:14;;;;;;;12.25;4.18;;;;;;;-143.98;100.00;68091.63;5069692;28;20060;-81
2021/04/17 07:37:44;;;;;;;10.57;4.32;;;;;;;-143.98;100.00;68091.63;5050394;28;20049;-81
2021/04/17 07:40:16;;;;;;;8.65;3.83;;;;;;;-143.98;100.00;68091.63;5065451;28;20122;-82
2021/04/17 07:42:47;;;;;;;14.45;4.22;;;;;;;-143.98;100.00;68091.63;5065183;28;20063;-81
2021/04/17 07:45:23;;;;;;;9.48;4.35;;;;;;;-143.98;100.00;68091.63;5058279;28;20316;-82
2021/04/17 07:48:00;;;;;;;8.30;4.00;;;;;;;-143.98;100.00;68091.63;5052676;28;20165;-82
2021/04/17 07:50:34;;;;;;;11.63;4.05;;;;;;;-143.98;100.00;68091.63;5034742;28;20413;-82
2021/04/17 07:53:01;;;;;;;13.13;3.85;;;;;;;-143.98;100.00;68091.63;5039361;28;20091;-81
2021/04/17 07:55:33;;;;;;;10.65;3.95;;;;;;;-143.98;100.00;68091.63;5059291;28;20107;-82
2021/04/17 07:58:01;;;;;;;14.80;4.72;;;;;;;-143.98;100.00;68091.63;5045732;28;20045;-81
2021/04/17 08:00:28;;;;;;;14.40;3.60;;;;;;;-143.98;100.00;68091.63;5055768;28;20086;-81
2021/04/17 08:02:56;;;;;;;11.05;5.95;;;;;;;-143.98;100.00;68091.63;5036260;28;20051;-81
2021/04/17 08:05:25;;;;;;;13.32;5.45;;;;;;;-143.98;100.00;68091.63;5052837;28;20582;-81
2021/04/17 08:07:54;;;;;;;10.02;3.80;;;;;;;-143.98;100.00;68091.63;5037860;28;20067;-81
2021/04/17 08:10:26;;;;;;;9.85;3.47;;;;;;;-143.98;100.00;68091.63;5055275;28;20329;-81
2021/04/17 08:12:59;;;;;;;8.57;3.28;;;;;;;-143.98;100.00;68091.63;5055120;28;20060;-81
2021/04/17 08:15:25;;;;;;;9.15;3.85;;;;;;;-143.98;100.00;68091.63;5054234;28;20115;-81
2021/04/17 08:17:56;;;;;;;8.75;5.15;;;;;;;-143.98;100.00;68091.63;5037301;28;20210;-81
2021/04/17 08:20:27;;;;;;;7.55;3.88;;;;;;;-143.98;100.00;68091.63;5069810;28;20155;-81
2021/04/17 08:22:58;;;;;;;7.70;3.78;;;;;;;-143.98;100.00;68091.63;5047189;28;20251;-81
2021/04/17 08:25:25;;;;;;;9.02;4.22;;;;;;;-143.98;100.00;68091.63;5036480;28;20162;-81
2021/04/17 08:27:54;;;;;;;5.05;3.03;;;;;;;-143.98;100.00;68091.63;5055785;28;20110;-81
2021/04/17 08:30:28;;;;;;;7.82;3.25;;;;;;;-143.98;100.00;68091.63;5057479;28;20082;-81
2021/04/17 08:32:55;;;;;;;7.38;3.20;;;;;;;-143.98;100.00;68091.63;5055966;28;20048;-81
2021/04/17 08:35:24;;;;;;;6.97;3.05;;;;;;;-143.98;100.00;68091.63;5040016;28;20098;-81
2021/04/17 08:37:51;;;;;;;11.88;3.45;;;;;;;-143.98;100.00;68091.63;5072794;28;20060;-80
2021/04/17 08:40:38;;;;;;;7.80;3.80;;;;;;;-143.98;100.00;68091.63;5053895;28;20573;-81
2021/04/17 08:43:10;;;;;;;6.72;2.65;;;;;;;-143.98;100.00;68091.63;5072979;28;20056;-80
2021/04/17 08:46:14;;;;;;;12.93;3.03;;;;;;;-143.98;100.00;68091.63;5071966;28;20063;-81
2021/04/17 08:48:53;;;;;;;10.27;2.78;;;;;;;-143.98;100.00;68091.63;5037137;28;20212;-81
2021/04/17 08:51:22;;;;;;;9.95;3.13;;;;;;;-143.98;100.00;68091.63;5069522;28;20061;-82
2021/04/17 08:53:50;;;;;;;10.00;3.15;;;;;;;-143.98;100.00;68091.63;5071585;28;20386;-80
2021/04/17 08:56:17;;;;;;;8.77;3.00;;;;;;;-143.98;100.00;68091.63;5053897;28;20055;-80
2021/04/17 08:59:11;;;;;;;9.13;2.78;;;;;;;-143.98;100.00;68091.63;5054221;28;20060;-80
2021/04/17 09:01:40;;;;;;;9.00;2.90;;;;;;;-143.98;100.00;68091.63;5037153;28;20056;-82
2021/04/17 09:04:09;;;;;;;9.45;2.95;;;;;;;-143.98;100.00;68091.63;5039820;28;20386;-82
2021/04/17 09:06:43;;;;;;;9.32;3.58;;;;;;;-143.98;100.00;68091.63;5072124;28;20347;-82
2021/04/17 09:09:19;;;;;;;6.10;2.83;;;;;;;-143.98;100.00;68091.63;5038878;28;20142;-82
2021/04/17 09:11:47;;;;;;;8.15;3.10;;;;;;;-143.98;100.00;68091.63;5070299;28;20067;-82
2021/04/17 09:14:26;;;;;;;9.48;2.85;;;;;;;-143.98;100.00;68091.63;5058800;28;20068;-81
2021/04/17 09:16:58;;;;;;;10.75;2.75;;;;;;;-143.98;100.00;68091.63;5056691;28;20142;-82
2021/04/17 09:22:31;;;;;;;8.15;2.78;;;;;;;-143.98;100.00;68091.63;5048970;28;20072;-81
2021/04/17 09:24:59;;;;;;;8.70;2.80;;;;;;;-143.98;100.00;68091.63;5046106;28;20100;-81
2021/04/17 09:27:27;;;;;;;9.75;2.85;;;;;;;-143.98;100.00;68091.63;5026784;28;20314;-80
2021/04/17 09:30:08;;;;;;;8.07;2.50;;;;;;;-143.98;100.00;68091.63;5015160;28;20197;-81
2021/04/17 09:33:03;;;;;;;8.18;2.42;;;;;;;-143.98;100.00;68091.63;5022941;28;20216;-82
2021/04/17 09:35:35;;;;;;;7.75;2.15;;;;;;;-143.98;100.00;68091.63;5031870;28;20234;-81
2021/04/17 09:38:23;;;;;;;8.00;2.70;;;;;;;-143.98;100.00;68091.63;5031357;28;20099;-82
2021/04/17 09:40:53;;;;;;;6.80;2.50;;;;;;;-143.98;100.00;68091.63;5002971;28;20465;-82
2021/04/17 09:43:22;;;;;;;8.65;2.85;;;;;;;-143.98;100.00;68091.63;5034356;28;20100;-82
2021/04/17 09:45:53;;;;;;;7.22;2.35;;;;;;;-143.98;100.00;68091.63;5016326;28;20057;-82
2021/04/17 09:48:21;;;;;;;9.88;2.53;;;;;;;-143.98;100.00;68091.63;4998093;28;20163;-81
2021/04/17 09:50:58;;;;;;;9.02;2.65;;;;;;;-143.98;100.00;68091.63;5014820;28;20061;-81
2021/04/17 09:53:31;;;;;;;8.38;2.22;;;;;;;-143.98;100.00;68091.63;5015530;28;20052;-81
2021/04/17 09:56:25;;;;;;;6.38;2.58;;;;;;;-143.98;100.00;68091.63;5044541;28;20332;-81
2021/04/17 09:58:59;;;;;;;7.05;1.95;;;;;;;-143.98;100.00;68091.63;5029128;28;20116;-82
2021/04/17 10:01:25;;;;;;;6.03;2.53;;;;;;;-143.98;100.00;68091.63;5022588;28;20057;-81
2021/04/17 10:04:01;;;;;;;8.82;2.22;;;;;;;-143.98;100.00;68091.63;5026522;28;20103;-81
2021/04/17 10:06:31;;;;;;;5.18;2.80;;;;;;;-143.98;100.00;68091.63;5055824;28;20080;-82
2021/04/17 10:09:15;;;;;;;7.10;2.63;;;;;;;-143.98;100.00;68091.63;5030200;28;20049;-82
2021/04/17 10:11:43;;;;;;;9.05;2.85;;;;;;;-143.98;100.00;68091.63;5036129;28;20119;-82
2021/04/17 10:14:14;;;;;;;6.50;2.42;;;;;;;-143.98;100.00;68091.63;5033900;28;20080;-82
2021/04/17 10:16:46;;;;;;;5.97;2.58;;;;;;;-143.98;100.00;68091.63;5033299;28;20315;-82
2021/04/17 10:19:22;;;;;;;9.48;2.67;;;;;;;-143.98;100.00;68091.63;5032317;28;20444;-83
2021/04/17 10:22:10;;;;;;;7.28;2.25;;;;;;;-143.98;100.00;68091.63;5025585;28;20064;-83
2021/04/17 10:24:37;;;;;;;5.05;1.83;;;;;;;-143.98;100.00;68091.63;5065578;28;20040;-82
2021/04/17 10:27:10;;;;;;;8.02;2.03;;;;;;;-143.98;100.00;68091.63;5069959;28;20078;-83
2021/04/17 10:29:47;;;;;;;8.38;2.40;;;;;;;-143.98;100.00;68091.63;5065597;28;20102;-83
2021/04/17 10:32:25;;;;;;;6.70;2.55;;;;;;;-143.98;100.00;68091.63;5063398;28;20147;-83
2021/04/17 10:35:05;;;;;;;3.92;1.60;;;;;;;-143.98;100.00;68091.63;5037823;28;20052;-83
2021/04/17 10:37:44;;;;;;;6.18;2.30;;;;;;;-143.98;100.00;68091.63;5037881;28;20094;-82
2021/04/17 10:40:14;;;;;;;6.95;2.00;;;;;;;-143.98;100.00;68091.63;5054965;28;20486;-82
2021/04/17 10:42:55;;;;;;;3.63;1.60;;;;;;;-143.98;100.00;68091.63;5072089;28;20102;-83
2021/04/17 10:45:30;;;;;;;7.80;1.98;;;;;;;-143.98;100.00;68091.63;5054375;28;20056;-83
2021/04/17 10:48:25;;;;;;;5.43;1.88;;;;;;;-143.98;100.00;68091.63;5072690;28;20406;-82
2021/04/17 10:51:02;;;;;;;6.75;2.13;;;;;;;-143.98;100.00;68091.63;5053546;28;20474;-82
2021/04/17 10:53:44;;;;;;;2.85;1.63;;;;;;;-143.98;100.00;68091.63;5052892;28;20209;-81
2021/04/17 10:56:18;;;;;;;4.47;1.70;;;;;;;-143.98;100.00;68091.63;5051737;28;20112;-81
2021/04/17 10:58:46;;;;;;;4.70;1.48;;;;;;;-143.98;100.00;68091.63;5050355;28;20067;-81
2021/04/17 11:01:14;;;;;;;3.15;1.25;;;;;;;-143.98;100.00;68091.63;5052521;28;20095;-82
2021/04/17 11:03:49;;;;;;;5.53;1.95;;;;;;;-143.98;100.00;68091.63;5052257;28;20056;-81
2021/04/17 11:06:34;;;;;;;6.45;1.33;;;;;;;-143.98;100.00;68091.63;5053220;28;20059;-81
2021/04/17 11:09:06;;;;;;;4.13;1.27;;;;;;;-143.98;100.00;68091.63;5051592;28;20067;-81
2021/04/17 11:11:33;;;;;;;3.65;1.70;;;;;;;-143.98;100.00;68091.63;5070017;28;20113;-82
2021/04/17 11:14:05;;;;;;;5.95;1.70;;;;;;;-143.98;100.00;68091.63;5068536;28;20055;-82
2021/04/17 11:16:45;;;;;;;5.75;1.65;;;;;;;-143.98;100.00;68091.63;5054076;28;20099;-82
2021/04/17 11:19:32;;;;;;;3.22;1.45;;;;;;;-143.98;100.00;68091.63;5075654;28;20087;-85